sensor_id;sensor_type;location;lat;lon;timestamp;temperature;humidity
12481;DHT22;6305;48.398;11.762;2023-03-25T00:00:49;8.10;99.90
12481;DHT22;6305;48.398;11.762;2023-03-25T00:03:18;8.00;99.90
12481;DHT22;6305;48.398;11.762;2023-03-25T00:05:46;8.00;99.90
12481;DHT22;6305;48.398;11.762;2023-03-25T00:08:15;7.90;99.90
12481;DHT22;6305;48.398;11.762;2023-03-25T00:10:42;7.80;99.90
12481;DHT22;6305;48.398;11.762;2023-03-25T00:13:09;7.80;99.90
12481;DHT22;6305;48.398;11.762;2023-03-25T00:15:41;7.70;99.90
12481;DHT22;6305;48.398;11.762;2023-03-25T00:18:10;7.60;99.90
12481;DHT22;6305;48.398;11.762;2023-03-25T00:20:37;7.60;99.90
12481;DHT22;6305;48.398;11.762;2023-03-25T00:23:05;7.50;99.90
12481;DHT22;6305;48.398;11.762;2023-03-25T00:25:34;7.50;99.90
12481;DHT22;6305;48.398;11.762;2023-03-25T00:28:01;7.50;99.90
12481;DHT22;6305;48.398;11.762;2023-03-25T00:30:28;7.50;99.90
12481;DHT22;6305;48.398;11.762;2023-03-25T00:32:56;7.60;99.90
12481;DHT22;6305;48.398;11.762;2023-03-25T00:35:26;7.70;99.90
12481;DHT22;6305;48.398;11.762;2023-03-25T00:37:54;7.70;99.90
12481;DHT22;6305;48.398;11.762;2023-03-25T00:40:25;7.70;99.90
12481;DHT22;6305;48.398;11.762;2023-03-25T00:42:54;7.70;99.90
12481;DHT22;6305;48.398;11.762;2023-03-25T00:45:22;7.70;99.90
12481;DHT22;6305;48.398;11.762;2023-03-25T00:47:50;7.70;99.90
12481;DHT22;6305;48.398;11.762;2023-03-25T00:50:17;7.70;99.90
12481;DHT22;6305;48.398;11.762;2023-03-25T00:52:46;7.60;99.90
12481;DHT22;6305;48.398;11.762;2023-03-25T00:55:14;7.60;99.90
12481;DHT22;6305;48.398;11.762;2023-03-25T00:57:42;7.60;99.90
12481;DHT22;6305;48.398;11.762;2023-03-25T01:00:17;7.60;99.90
12481;DHT22;6305;48.398;11.762;2023-03-25T01:02:44;7.50;99.90
12481;DHT22;6305;48.398;11.762;2023-03-25T01:05:11;7.50;99.90
12481;DHT22;6305;48.398;11.762;2023-03-25T01:07:39;7.60;99.90
12481;DHT22;6305;48.398;11.762;2023-03-25T01:10:08;7.70;99.90
12481;DHT22;6305;48.398;11.762;2023-03-25T01:12:36;7.70;99.90
12481;DHT22;6305;48.398;11.762;2023-03-25T01:15:03;7.80;99.90
12481;DHT22;6305;48.398;11.762;2023-03-25T01:17:32;7.80;99.90
12481;DHT22;6305;48.398;11.762;2023-03-25T01:19:59;7.80;99.90
12481;DHT22;6305;48.398;11.762;2023-03-25T01:22:26;7.80;99.90
12481;DHT22;6305;48.398;11.762;2023-03-25T01:24:53;7.80;99.90
12481;DHT22;6305;48.398;11.762;2023-03-25T01:27:20;7.80;99.90
12481;DHT22;6305;48.398;11.762;2023-03-25T01:29:49;7.80;99.90
12481;DHT22;6305;48.398;11.762;2023-03-25T01:32:16;7.70;99.90
12481;DHT22;6305;48.398;11.762;2023-03-25T01:34:45;7.80;99.90
12481;DHT22;6305;48.398;11.762;2023-03-25T01:37:13;7.80;99.90
12481;DHT22;6305;48.398;11.762;2023-03-25T01:39:40;7.90;99.90
12481;DHT22;6305;48.398;11.762;2023-03-25T01:42:09;7.90;99.90
12481;DHT22;6305;48.398;11.762;2023-03-25T01:47:42;8.00;99.90
12481;DHT22;6305;48.398;11.762;2023-03-25T01:50:11;8.00;99.90
12481;DHT22;6305;48.398;11.762;2023-03-25T01:52:43;8.00;99.90
12481;DHT22;6305;48.398;11.762;2023-03-25T01:55:11;8.00;99.90
12481;DHT22;6305;48.398;11.762;2023-03-25T01:57:40;7.90;99.90
12481;DHT22;6305;48.398;11.762;2023-03-25T02:00:13;7.90;99.90
12481;DHT22;6305;48.398;11.762;2023-03-25T02:02:41;7.90;99.90
12481;DHT22;6305;48.398;11.762;2023-03-25T02:05:17;7.90;99.90
12481;DHT22;6305;48.398;11.762;2023-03-25T02:07:47;7.90;99.90
12481;DHT22;6305;48.398;11.762;2023-03-25T02:10:15;7.90;99.90
12481;DHT22;6305;48.398;11.762;2023-03-25T02:12:43;7.90;99.90
12481;DHT22;6305;48.398;11.762;2023-03-25T02:15:14;8.10;99.90
12481;DHT22;6305;48.398;11.762;2023-03-25T02:17:55;8.10;99.90
12481;DHT22;6305;48.398;11.762;2023-03-25T02:20:55;8.20;99.90
12481;DHT22;6305;48.398;11.762;2023-03-25T02:23:43;8.30;99.90
12481;DHT22;6305;48.398;11.762;2023-03-25T02:29:27;8.50;99.90
12481;DHT22;6305;48.398;11.762;2023-03-25T02:32:15;8.50;99.90
12481;DHT22;6305;48.398;11.762;2023-03-25T02:35:03;8.60;99.90
12481;DHT22;6305;48.398;11.762;2023-03-25T02:38:03;8.60;99.90
12481;DHT22;6305;48.398;11.762;2023-03-25T02:40:40;8.50;99.90
12481;DHT22;6305;48.398;11.762;2023-03-25T02:43:11;8.50;99.90
12481;DHT22;6305;48.398;11.762;2023-03-25T02:45:44;8.40;99.90
12481;DHT22;6305;48.398;11.762;2023-03-25T02:48:17;8.30;99.90
12481;DHT22;6305;48.398;11.762;2023-03-25T02:50:49;8.30;99.90
12481;DHT22;6305;48.398;11.762;2023-03-25T02:53:24;8.30;99.90
12481;DHT22;6305;48.398;11.762;2023-03-25T02:55:55;8.20;99.90
12481;DHT22;6305;48.398;11.762;2023-03-25T02:58:24;8.10;99.90
12481;DHT22;6305;48.398;11.762;2023-03-25T03:00:52;8.00;99.90
12481;DHT22;6305;48.398;11.762;2023-03-25T03:03:24;8.00;99.90
12481;DHT22;6305;48.398;11.762;2023-03-25T03:05:57;8.00;99.90
12481;DHT22;6305;48.398;11.762;2023-03-25T03:08:40;8.10;99.90
12481;DHT22;6305;48.398;11.762;2023-03-25T03:11:14;8.10;99.90
12481;DHT22;6305;48.398;11.762;2023-03-25T03:13:59;8.20;99.90
12481;DHT22;6305;48.398;11.762;2023-03-25T03:16:32;8.20;99.90
12481;DHT22;6305;48.398;11.762;2023-03-25T03:19:13;8.20;99.90
12481;DHT22;6305;48.398;11.762;2023-03-25T03:21:53;8.30;99.90
12481;DHT22;6305;48.398;11.762;2023-03-25T03:24:30;8.30;99.90
12481;DHT22;6305;48.398;11.762;2023-03-25T03:27:02;8.20;99.90
12481;DHT22;6305;48.398;11.762;2023-03-25T03:29:35;8.10;99.90
12481;DHT22;6305;48.398;11.762;2023-03-25T03:32:08;8.10;99.90
12481;DHT22;6305;48.398;11.762;2023-03-25T03:34:42;8.10;99.90
12481;DHT22;6305;48.398;11.762;2023-03-25T03:37:14;7.90;99.90
12481;DHT22;6305;48.398;11.762;2023-03-25T03:39:45;7.80;99.90
12481;DHT22;6305;48.398;11.762;2023-03-25T03:42:17;7.60;99.90
12481;DHT22;6305;48.398;11.762;2023-03-25T03:44:48;7.70;99.90
12481;DHT22;6305;48.398;11.762;2023-03-25T03:47:19;7.80;99.90
12481;DHT22;6305;48.398;11.762;2023-03-25T03:49:51;7.90;99.90
12481;DHT22;6305;48.398;11.762;2023-03-25T03:52:21;7.90;99.90
12481;DHT22;6305;48.398;11.762;2023-03-25T03:54:55;7.90;99.90
12481;DHT22;6305;48.398;11.762;2023-03-25T03:57:26;7.90;99.90
12481;DHT22;6305;48.398;11.762;2023-03-25T03:59:58;7.70;99.90
12481;DHT22;6305;48.398;11.762;2023-03-25T04:02:40;7.50;99.90
12481;DHT22;6305;48.398;11.762;2023-03-25T04:05:09;7.20;99.90
12481;DHT22;6305;48.398;11.762;2023-03-25T04:07:40;7.10;99.90
12481;DHT22;6305;48.398;11.762;2023-03-25T04:10:13;6.90;99.90
12481;DHT22;6305;48.398;11.762;2023-03-25T04:12:44;6.90;99.90
12481;DHT22;6305;48.398;11.762;2023-03-25T04:15:13;6.90;99.90
12481;DHT22;6305;48.398;11.762;2023-03-25T04:17:41;6.90;99.90
12481;DHT22;6305;48.398;11.762;2023-03-25T04:20:12;6.90;99.90
12481;DHT22;6305;48.398;11.762;2023-03-25T04:22:39;6.90;99.90
12481;DHT22;6305;48.398;11.762;2023-03-25T04:25:11;6.80;99.90
12481;DHT22;6305;48.398;11.762;2023-03-25T04:27:39;6.80;99.90
12481;DHT22;6305;48.398;11.762;2023-03-25T04:30:14;6.70;99.90
12481;DHT22;6305;48.398;11.762;2023-03-25T04:32:42;6.70;99.90
12481;DHT22;6305;48.398;11.762;2023-03-25T04:35:11;6.70;99.90
12481;DHT22;6305;48.398;11.762;2023-03-25T04:37:38;6.70;99.90
12481;DHT22;6305;48.398;11.762;2023-03-25T04:40:07;6.80;99.90
12481;DHT22;6305;48.398;11.762;2023-03-25T04:42:36;6.90;99.90
12481;DHT22;6305;48.398;11.762;2023-03-25T04:45:03;6.90;99.90
12481;DHT22;6305;48.398;11.762;2023-03-25T04:47:32;7.00;99.90
12481;DHT22;6305;48.398;11.762;2023-03-25T04:49:59;7.00;99.90
12481;DHT22;6305;48.398;11.762;2023-03-25T04:52:26;7.10;99.90
12481;DHT22;6305;48.398;11.762;2023-03-25T04:54:53;7.10;99.90
12481;DHT22;6305;48.398;11.762;2023-03-25T04:57:20;7.20;99.90
12481;DHT22;6305;48.398;11.762;2023-03-25T04:59:50;7.30;99.90
12481;DHT22;6305;48.398;11.762;2023-03-25T05:02:17;7.30;99.90
12481;DHT22;6305;48.398;11.762;2023-03-25T05:04:45;7.30;99.90
12481;DHT22;6305;48.398;11.762;2023-03-25T05:07:13;7.40;99.90
12481;DHT22;6305;48.398;11.762;2023-03-25T05:09:43;7.40;99.90
12481;DHT22;6305;48.398;11.762;2023-03-25T05:12:10;7.40;99.90
12481;DHT22;6305;48.398;11.762;2023-03-25T05:14:37;7.40;99.90
12481;DHT22;6305;48.398;11.762;2023-03-25T05:17:06;7.30;99.90
12481;DHT22;6305;48.398;11.762;2023-03-25T05:19:33;7.30;99.90
12481;DHT22;6305;48.398;11.762;2023-03-25T05:22:08;7.20;99.90
12481;DHT22;6305;48.398;11.762;2023-03-25T05:24:35;7.20;99.90
12481;DHT22;6305;48.398;11.762;2023-03-25T05:27:02;7.40;99.90
12481;DHT22;6305;48.398;11.762;2023-03-25T05:29:29;7.50;99.90
12481;DHT22;6305;48.398;11.762;2023-03-25T05:31:58;7.60;99.90
12481;DHT22;6305;48.398;11.762;2023-03-25T05:34:27;7.70;99.90
12481;DHT22;6305;48.398;11.762;2023-03-25T05:36:56;7.80;99.90
12481;DHT22;6305;48.398;11.762;2023-03-25T05:39:23;7.90;99.90
12481;DHT22;6305;48.398;11.762;2023-03-25T05:41:50;8.00;99.90
12481;DHT22;6305;48.398;11.762;2023-03-25T05:44:20;8.10;99.90
12481;DHT22;6305;48.398;11.762;2023-03-25T05:46:47;8.10;99.90
12481;DHT22;6305;48.398;11.762;2023-03-25T05:49:14;8.30;99.90
12481;DHT22;6305;48.398;11.762;2023-03-25T05:51:42;8.40;99.90
12481;DHT22;6305;48.398;11.762;2023-03-25T05:54:09;8.50;99.90
12481;DHT22;6305;48.398;11.762;2023-03-25T05:56:36;8.50;99.90
12481;DHT22;6305;48.398;11.762;2023-03-25T05:59:04;8.60;99.90
12481;DHT22;6305;48.398;11.762;2023-03-25T06:01:31;8.60;99.90
12481;DHT22;6305;48.398;11.762;2023-03-25T06:03:59;8.60;99.90
12481;DHT22;6305;48.398;11.762;2023-03-25T06:06:27;8.70;99.90
12481;DHT22;6305;48.398;11.762;2023-03-25T06:08:55;8.80;99.90
12481;DHT22;6305;48.398;11.762;2023-03-25T06:11:23;8.80;99.90
12481;DHT22;6305;48.398;11.762;2023-03-25T06:13:50;8.70;99.90
12481;DHT22;6305;48.398;11.762;2023-03-25T06:16:19;8.70;99.90
12481;DHT22;6305;48.398;11.762;2023-03-25T06:18:48;8.70;99.90
12481;DHT22;6305;48.398;11.762;2023-03-25T06:21:21;8.70;99.90
12481;DHT22;6305;48.398;11.762;2023-03-25T06:23:49;8.80;99.90
12481;DHT22;6305;48.398;11.762;2023-03-25T06:26:18;8.90;99.90
12481;DHT22;6305;48.398;11.762;2023-03-25T06:28:46;8.90;99.90
12481;DHT22;6305;48.398;11.762;2023-03-25T06:31:15;9.00;99.90
12481;DHT22;6305;48.398;11.762;2023-03-25T06:33:44;9.10;99.90
12481;DHT22;6305;48.398;11.762;2023-03-25T06:36:13;9.30;99.90
12481;DHT22;6305;48.398;11.762;2023-03-25T06:38:43;9.60;99.90
12481;DHT22;6305;48.398;11.762;2023-03-25T06:41:13;9.70;99.90
12481;DHT22;6305;48.398;11.762;2023-03-25T06:43:42;9.80;99.90
12481;DHT22;6305;48.398;11.762;2023-03-25T06:46:45;9.80;99.90
12481;DHT22;6305;48.398;11.762;2023-03-25T06:49:54;9.70;99.90
12481;DHT22;6305;48.398;11.762;2023-03-25T06:52:21;9.40;99.90
12481;DHT22;6305;48.398;11.762;2023-03-25T06:54:50;9.20;99.90
12481;DHT22;6305;48.398;11.762;2023-03-25T06:57:17;9.10;99.90
12481;DHT22;6305;48.398;11.762;2023-03-25T06:59:46;9.00;99.90
12481;DHT22;6305;48.398;11.762;2023-03-25T07:02:14;9.00;99.90
12481;DHT22;6305;48.398;11.762;2023-03-25T07:04:41;9.00;99.90
12481;DHT22;6305;48.398;11.762;2023-03-25T07:07:09;9.00;99.90
12481;DHT22;6305;48.398;11.762;2023-03-25T07:09:36;9.10;99.90
12481;DHT22;6305;48.398;11.762;2023-03-25T07:12:03;9.30;99.90
12481;DHT22;6305;48.398;11.762;2023-03-25T07:14:30;9.40;99.90
12481;DHT22;6305;48.398;11.762;2023-03-25T07:16:58;9.50;99.90
12481;DHT22;6305;48.398;11.762;2023-03-25T07:19:26;9.60;99.90
12481;DHT22;6305;48.398;11.762;2023-03-25T07:21:53;9.60;99.90
12481;DHT22;6305;48.398;11.762;2023-03-25T07:24:20;9.60;99.90
12481;DHT22;6305;48.398;11.762;2023-03-25T07:26:47;9.70;99.90
12481;DHT22;6305;48.398;11.762;2023-03-25T07:29:16;9.70;99.90
12481;DHT22;6305;48.398;11.762;2023-03-25T07:31:43;9.80;99.90
12481;DHT22;6305;48.398;11.762;2023-03-25T07:34:12;10.00;99.90
12481;DHT22;6305;48.398;11.762;2023-03-25T07:36:39;10.20;99.90
12481;DHT22;6305;48.398;11.762;2023-03-25T07:39:06;10.30;99.90
12481;DHT22;6305;48.398;11.762;2023-03-25T07:41:33;10.40;99.90
12481;DHT22;6305;48.398;11.762;2023-03-25T07:44:08;10.70;98.20
12481;DHT22;6305;48.398;11.762;2023-03-25T07:46:37;10.70;96.30
12481;DHT22;6305;48.398;11.762;2023-03-25T07:49:05;11.80;96.80
12481;DHT22;6305;48.398;11.762;2023-03-25T07:51:33;14.00;84.00
12481;DHT22;6305;48.398;11.762;2023-03-25T07:54:00;15.00;71.90
12481;DHT22;6305;48.398;11.762;2023-03-25T07:56:27;17.10;62.90
12481;DHT22;6305;48.398;11.762;2023-03-25T07:58:54;18.80;56.90
12481;DHT22;6305;48.398;11.762;2023-03-25T08:01:21;18.00;53.20
12481;DHT22;6305;48.398;11.762;2023-03-25T08:03:48;15.70;53.90
12481;DHT22;6305;48.398;11.762;2023-03-25T08:06:16;13.70;58.10
12481;DHT22;6305;48.398;11.762;2023-03-25T08:08:44;12.40;64.40
12481;DHT22;6305;48.398;11.762;2023-03-25T08:11:11;11.50;72.00
12481;DHT22;6305;48.398;11.762;2023-03-25T08:13:39;11.00;80.20
12481;DHT22;6305;48.398;11.762;2023-03-25T08:16:10;11.70;86.30
12481;DHT22;6305;48.398;11.762;2023-03-25T08:18:37;14.10;77.30
12481;DHT22;6305;48.398;11.762;2023-03-25T08:21:08;15.10;67.90
12481;DHT22;6305;48.398;11.762;2023-03-25T08:23:35;14.70;64.10
12481;DHT22;6305;48.398;11.762;2023-03-25T08:26:04;14.90;64.40
12481;DHT22;6305;48.398;11.762;2023-03-25T08:28:31;17.20;61.10
12481;DHT22;6305;48.398;11.762;2023-03-25T08:30:59;17.20;55.40
12481;DHT22;6305;48.398;11.762;2023-03-25T08:33:27;15.60;55.50
12481;DHT22;6305;48.398;11.762;2023-03-25T08:35:59;16.30;57.90
12481;DHT22;6305;48.398;11.762;2023-03-25T08:38:27;16.70;55.40
12481;DHT22;6305;48.398;11.762;2023-03-25T08:40:56;14.90;56.00
12481;DHT22;6305;48.398;11.762;2023-03-25T08:43:24;13.60;59.00
12481;DHT22;6305;48.398;11.762;2023-03-25T08:45:51;13.10;63.40
12481;DHT22;6305;48.398;11.762;2023-03-25T08:48:19;12.80;66.30
12481;DHT22;6305;48.398;11.762;2023-03-25T08:50:47;12.90;68.60
12481;DHT22;6305;48.398;11.762;2023-03-25T08:53:14;12.90;68.40
12481;DHT22;6305;48.398;11.762;2023-03-25T08:55:41;12.70;70.20
12481;DHT22;6305;48.398;11.762;2023-03-25T08:58:09;12.50;72.00
12481;DHT22;6305;48.398;11.762;2023-03-25T09:00:38;12.40;72.10
12481;DHT22;6305;48.398;11.762;2023-03-25T09:03:05;12.30;71.80
12481;DHT22;6305;48.398;11.762;2023-03-25T09:05:34;12.00;73.00
12481;DHT22;6305;48.398;11.762;2023-03-25T09:08:04;11.90;76.00
12481;DHT22;6305;48.398;11.762;2023-03-25T09:10:31;11.70;79.30
12481;DHT22;6305;48.398;11.762;2023-03-25T09:12:58;11.60;80.90
12481;DHT22;6305;48.398;11.762;2023-03-25T09:15:25;11.60;82.90
12481;DHT22;6305;48.398;11.762;2023-03-25T09:17:53;11.90;84.00
12481;DHT22;6305;48.398;11.762;2023-03-25T09:20:20;12.40;81.70
12481;DHT22;6305;48.398;11.762;2023-03-25T09:22:48;13.00;78.00
12481;DHT22;6305;48.398;11.762;2023-03-25T09:25:15;13.70;73.30
12481;DHT22;6305;48.398;11.762;2023-03-25T09:27:42;14.30;71.20
12481;DHT22;6305;48.398;11.762;2023-03-25T09:30:10;15.20;66.50
12481;DHT22;6305;48.398;11.762;2023-03-25T09:32:37;15.50;63.30
12481;DHT22;6305;48.398;11.762;2023-03-25T09:35:06;14.90;62.90
12481;DHT22;6305;48.398;11.762;2023-03-25T09:37:34;14.50;63.90
12481;DHT22;6305;48.398;11.762;2023-03-25T09:40:01;13.90;65.90
12481;DHT22;6305;48.398;11.762;2023-03-25T09:42:36;13.80;67.50
12481;DHT22;6305;48.398;11.762;2023-03-25T09:45:16;14.40;66.40
12481;DHT22;6305;48.398;11.762;2023-03-25T09:47:53;16.30;64.70
12481;DHT22;6305;48.398;11.762;2023-03-25T09:50:24;17.60;57.00
12481;DHT22;6305;48.398;11.762;2023-03-25T09:52:55;17.20;55.60
12481;DHT22;6305;48.398;11.762;2023-03-25T09:55:26;16.20;56.30
12481;DHT22;6305;48.398;11.762;2023-03-25T09:58:00;15.30;58.10
12481;DHT22;6305;48.398;11.762;2023-03-25T10:00:28;14.50;61.40
12481;DHT22;6305;48.398;11.762;2023-03-25T10:03:05;14.80;62.30
12481;DHT22;6305;48.398;11.762;2023-03-25T10:08:36;14.60;61.00
12481;DHT22;6305;48.398;11.762;2023-03-25T10:11:06;13.90;62.30
12481;DHT22;6305;48.398;11.762;2023-03-25T10:13:43;13.50;64.70
12481;DHT22;6305;48.398;11.762;2023-03-25T10:16:19;13.40;67.10
12481;DHT22;6305;48.398;11.762;2023-03-25T10:18:57;13.60;67.40
12481;DHT22;6305;48.398;11.762;2023-03-25T10:21:34;14.20;65.50
12481;DHT22;6305;48.398;11.762;2023-03-25T10:24:12;13.80;63.50
12481;DHT22;6305;48.398;11.762;2023-03-25T10:26:46;13.20;65.30
12481;DHT22;6305;48.398;11.762;2023-03-25T10:29:18;12.90;68.40
12481;DHT22;6305;48.398;11.762;2023-03-25T10:31:50;12.50;69.20
12481;DHT22;6305;48.398;11.762;2023-03-25T10:34:21;12.20;71.70
12481;DHT22;6305;48.398;11.762;2023-03-25T10:36:53;12.30;74.70
12481;DHT22;6305;48.398;11.762;2023-03-25T10:39:24;13.00;74.10
12481;DHT22;6305;48.398;11.762;2023-03-25T10:42:03;13.50;69.20
12481;DHT22;6305;48.398;11.762;2023-03-25T10:44:30;14.30;67.20
12481;DHT22;6305;48.398;11.762;2023-03-25T10:47:00;15.50;61.60
12481;DHT22;6305;48.398;11.762;2023-03-25T10:49:31;16.70;57.60
12481;DHT22;6305;48.398;11.762;2023-03-25T10:52:00;16.50;54.60
12481;DHT22;6305;48.398;11.762;2023-03-25T10:54:30;15.40;55.30
12481;DHT22;6305;48.398;11.762;2023-03-25T10:57:07;14.70;56.90
12481;DHT22;6305;48.398;11.762;2023-03-25T10:59:37;14.10;59.10
12481;DHT22;6305;48.398;11.762;2023-03-25T11:02:13;14.10;61.00
12481;DHT22;6305;48.398;11.762;2023-03-25T11:04:44;14.10;61.10
12481;DHT22;6305;48.398;11.762;2023-03-25T11:07:18;14.00;59.70
12481;DHT22;6305;48.398;11.762;2023-03-25T11:09:46;14.10;60.30
12481;DHT22;6305;48.398;11.762;2023-03-25T11:12:17;14.40;60.20
12481;DHT22;6305;48.398;11.762;2023-03-25T11:14:53;16.10;58.30
12481;DHT22;6305;48.398;11.762;2023-03-25T11:17:22;17.70;54.70
12481;DHT22;6305;48.398;11.762;2023-03-25T11:19:54;17.70;53.10
12481;DHT22;6305;48.398;11.762;2023-03-25T11:22:26;18.60;50.20
12481;DHT22;6305;48.398;11.762;2023-03-25T11:24:59;17.50;50.70
12481;DHT22;6305;48.398;11.762;2023-03-25T11:27:28;16.70;51.90
12481;DHT22;6305;48.398;11.762;2023-03-25T11:29:59;15.90;52.80
12481;DHT22;6305;48.398;11.762;2023-03-25T11:32:32;15.00;54.60
12481;DHT22;6305;48.398;11.762;2023-03-25T11:35:00;14.80;56.10
12481;DHT22;6305;48.398;11.762;2023-03-25T11:37:29;14.80;57.60
12481;DHT22;6305;48.398;11.762;2023-03-25T11:40:04;15.00;57.30
12481;DHT22;6305;48.398;11.762;2023-03-25T11:42:38;15.10;56.90
12481;DHT22;6305;48.398;11.762;2023-03-25T11:45:18;16.60;53.90
12481;DHT22;6305;48.398;11.762;2023-03-25T11:47:46;16.80;52.60
12481;DHT22;6305;48.398;11.762;2023-03-25T11:50:22;16.40;52.30
12481;DHT22;6305;48.398;11.762;2023-03-25T11:52:54;16.30;52.60
12481;DHT22;6305;48.398;11.762;2023-03-25T11:55:25;15.80;53.70
12481;DHT22;6305;48.398;11.762;2023-03-25T11:57:54;15.60;55.30
12481;DHT22;6305;48.398;11.762;2023-03-25T12:00:30;15.60;55.30
12481;DHT22;6305;48.398;11.762;2023-03-25T12:03:00;16.50;54.60
12481;DHT22;6305;48.398;11.762;2023-03-25T12:05:27;17.30;52.60
12481;DHT22;6305;48.398;11.762;2023-03-25T12:08:08;17.10;51.30
12481;DHT22;6305;48.398;11.762;2023-03-25T12:10:48;16.80;51.20
12481;DHT22;6305;48.398;11.762;2023-03-25T12:13:30;15.80;52.50
12481;DHT22;6305;48.398;11.762;2023-03-25T12:16:10;15.40;54.00
12481;DHT22;6305;48.398;11.762;2023-03-25T12:18:47;15.20;54.80
12481;DHT22;6305;48.398;11.762;2023-03-25T12:21:30;16.20;53.90
12481;DHT22;6305;48.398;11.762;2023-03-25T12:24:14;16.70;52.50
12481;DHT22;6305;48.398;11.762;2023-03-25T12:26:52;17.20;51.00
12481;DHT22;6305;48.398;11.762;2023-03-25T12:29:29;17.60;49.40
12481;DHT22;6305;48.398;11.762;2023-03-25T12:32:13;17.40;49.10
12481;DHT22;6305;48.398;11.762;2023-03-25T12:34:50;18.10;48.80
12481;DHT22;6305;48.398;11.762;2023-03-25T12:37:27;17.80;48.10
12481;DHT22;6305;48.398;11.762;2023-03-25T12:40:22;17.10;49.20
12481;DHT22;6305;48.398;11.762;2023-03-25T12:43:02;17.10;49.60
12481;DHT22;6305;48.398;11.762;2023-03-25T12:45:46;18.10;49.70
12481;DHT22;6305;48.398;11.762;2023-03-25T12:48:27;18.30;47.30
12481;DHT22;6305;48.398;11.762;2023-03-25T12:51:01;17.90;47.90
12481;DHT22;6305;48.398;11.762;2023-03-25T12:53:42;17.90;47.60
12481;DHT22;6305;48.398;11.762;2023-03-25T12:56:27;15.90;49.40
12481;DHT22;6305;48.398;11.762;2023-03-25T12:59:11;14.70;53.60
12481;DHT22;6305;48.398;11.762;2023-03-25T13:01:46;14.30;56.00
12481;DHT22;6305;48.398;11.762;2023-03-25T13:04:34;15.00;56.10
12481;DHT22;6305;48.398;11.762;2023-03-25T13:07:09;15.20;54.40
12481;DHT22;6305;48.398;11.762;2023-03-25T13:09:48;15.00;55.60
12481;DHT22;6305;48.398;11.762;2023-03-25T13:12:27;13.10;57.20
12481;DHT22;6305;48.398;11.762;2023-03-25T13:15:02;11.70;60.40
12481;DHT22;6305;48.398;11.762;2023-03-25T13:17:34;11.10;63.70
12481;DHT22;6305;48.398;11.762;2023-03-25T13:20:04;11.60;64.30
12481;DHT22;6305;48.398;11.762;2023-03-25T13:22:37;12.10;62.30
12481;DHT22;6305;48.398;11.762;2023-03-25T13:25:17;12.60;63.70
12481;DHT22;6305;48.398;11.762;2023-03-25T13:27:48;12.60;63.70
12481;DHT22;6305;48.398;11.762;2023-03-25T13:30:22;12.20;65.10
12481;DHT22;6305;48.398;11.762;2023-03-25T13:32:54;12.10;66.10
12481;DHT22;6305;48.398;11.762;2023-03-25T13:35:29;12.30;65.60
12481;DHT22;6305;48.398;11.762;2023-03-25T13:38:03;13.20;61.90
12481;DHT22;6305;48.398;11.762;2023-03-25T13:40:36;14.10;60.70
12481;DHT22;6305;48.398;11.762;2023-03-25T13:43:14;14.80;58.00
12481;DHT22;6305;48.398;11.762;2023-03-25T13:45:48;14.70;56.40
12481;DHT22;6305;48.398;11.762;2023-03-25T13:48:18;14.30;57.10
12481;DHT22;6305;48.398;11.762;2023-03-25T13:50:48;13.70;58.60
12481;DHT22;6305;48.398;11.762;2023-03-25T13:53:18;13.30;59.50
12481;DHT22;6305;48.398;11.762;2023-03-25T13:55:52;14.20;60.30
12481;DHT22;6305;48.398;11.762;2023-03-25T13:58:42;16.40;55.10
12481;DHT22;6305;48.398;11.762;2023-03-25T14:01:34;16.60;50.20
12481;DHT22;6305;48.398;11.762;2023-03-25T14:07:46;15.60;52.60
12481;DHT22;6305;48.398;11.762;2023-03-25T14:10:37;15.40;52.40
12481;DHT22;6305;48.398;11.762;2023-03-25T14:13:09;14.50;52.90
12481;DHT22;6305;48.398;11.762;2023-03-25T14:15:44;14.10;54.80
12481;DHT22;6305;48.398;11.762;2023-03-25T14:18:17;14.20;56.20
12481;DHT22;6305;48.398;11.762;2023-03-25T14:20:45;14.70;56.70
12481;DHT22;6305;48.398;11.762;2023-03-25T14:23:15;15.60;55.10
12481;DHT22;6305;48.398;11.762;2023-03-25T14:25:47;15.60;52.40
12481;DHT22;6305;48.398;11.762;2023-03-25T14:28:17;14.70;53.60
12481;DHT22;6305;48.398;11.762;2023-03-25T14:31:15;14.70;55.40
12481;DHT22;6305;48.398;11.762;2023-03-25T14:34:11;16.40;54.20
12481;DHT22;6305;48.398;11.762;2023-03-25T14:37:09;17.90;50.20
12481;DHT22;6305;48.398;11.762;2023-03-25T14:39:37;17.10;48.70
12481;DHT22;6305;48.398;11.762;2023-03-25T14:42:11;15.30;51.50
12481;DHT22;6305;48.398;11.762;2023-03-25T14:44:50;14.50;54.10
12481;DHT22;6305;48.398;11.762;2023-03-25T14:47:33;14.00;55.90
12481;DHT22;6305;48.398;11.762;2023-03-25T14:50:11;13.60;56.60
12481;DHT22;6305;48.398;11.762;2023-03-25T14:52:55;13.50;57.90
12481;DHT22;6305;48.398;11.762;2023-03-25T14:55:27;13.60;58.50
12481;DHT22;6305;48.398;11.762;2023-03-25T14:57:57;14.10;57.30
12481;DHT22;6305;48.398;11.762;2023-03-25T15:00:29;13.60;57.50
12481;DHT22;6305;48.398;11.762;2023-03-25T15:03:02;13.20;59.00
12481;DHT22;6305;48.398;11.762;2023-03-25T15:05:31;12.90;60.60
12481;DHT22;6305;48.398;11.762;2023-03-25T15:08:10;12.80;61.50
12481;DHT22;6305;48.398;11.762;2023-03-25T15:10:40;12.70;62.00
12481;DHT22;6305;48.398;11.762;2023-03-25T15:13:11;12.50;62.40
12481;DHT22;6305;48.398;11.762;2023-03-25T15:15:57;12.30;63.40
12481;DHT22;6305;48.398;11.762;2023-03-25T15:19:05;11.40;67.80
12481;DHT22;6305;48.398;11.762;2023-03-25T15:22:06;10.00;75.60
12481;DHT22;6305;48.398;11.762;2023-03-25T15:24:48;9.20;91.00
12481;DHT22;6305;48.398;11.762;2023-03-25T15:27:27;9.10;96.90
12481;DHT22;6305;48.398;11.762;2023-03-25T15:30:05;9.40;97.20
12481;DHT22;6305;48.398;11.762;2023-03-25T15:32:47;10.50;96.20
12481;DHT22;6305;48.398;11.762;2023-03-25T15:35:48;12.00;92.90
12481;DHT22;6305;48.398;11.762;2023-03-25T15:38:41;12.70;85.40
12481;DHT22;6305;48.398;11.762;2023-03-25T15:44:19;12.40;79.20
12481;DHT22;6305;48.398;11.762;2023-03-25T15:50:10;12.10;83.90
12481;DHT22;6305;48.398;11.762;2023-03-25T15:53:24;11.90;86.50
12481;DHT22;6305;48.398;11.762;2023-03-25T15:55:58;11.70;88.40
12481;DHT22;6305;48.398;11.762;2023-03-25T15:58:29;11.50;88.80
12481;DHT22;6305;48.398;11.762;2023-03-25T16:01:07;11.30;90.60
12481;DHT22;6305;48.398;11.762;2023-03-25T16:03:38;11.10;92.60
12481;DHT22;6305;48.398;11.762;2023-03-25T16:06:07;10.80;97.50
12481;DHT22;6305;48.398;11.762;2023-03-25T16:08:41;10.30;99.90
12481;DHT22;6305;48.398;11.762;2023-03-25T16:11:22;9.80;99.90
12481;DHT22;6305;48.398;11.762;2023-03-25T16:14:04;9.50;99.90
12481;DHT22;6305;48.398;11.762;2023-03-25T16:16:34;9.10;99.90
12481;DHT22;6305;48.398;11.762;2023-03-25T16:19:03;8.70;99.90
12481;DHT22;6305;48.398;11.762;2023-03-25T16:21:31;8.30;99.90
12481;DHT22;6305;48.398;11.762;2023-03-25T16:24:02;8.10;99.90
12481;DHT22;6305;48.398;11.762;2023-03-25T16:26:34;7.90;99.90
12481;DHT22;6305;48.398;11.762;2023-03-25T16:29:09;7.80;99.90